Time;durP1;ratioP1;P1;durP2;ratioP2;P2;SDS_P1;SDS_P2;PMS_P1;PMS_P2;Temp;Humidity;BMP_temperature;BMP_pressure;BME280_temperature;BME280_humidity;BME280_pressure;Samples;Min_cycle;Max_cycle;Signal;HPM_P1;HPM_P2
2022/12/19 00:01:16;;;;;;;29.42;15.93;;;4.50;99.90;;;;;;5113982;28;20200;-64
2022/12/19 00:03:47;;;;;;;32.00;18.63;;;4.40;99.90;;;;;;5114004;28;20176;-60
2022/12/19 00:06:13;;;;;;;35.83;18.23;;;4.50;99.90;;;;;;5113760;28;20560;-58
2022/12/19 00:08:44;;;;;;;37.38;18.15;;;4.60;99.90;;;;;;5113989;28;20190;-60
2022/12/19 00:11:12;;;;;;;28.70;16.37;;;4.70;99.90;;;;;;5113848;28;20597;-58
2022/12/19 00:13:39;;;;;;;33.33;18.02;;;4.70;99.90;;;;;;5113873;28;20185;-59
2022/12/19 00:16:12;;;;;;;32.90;15.68;;;4.70;99.90;;;;;;5113752;28;20183;-60
2022/12/19 00:18:39;;;;;;;33.78;15.60;;;4.70;99.90;;;;;;5113775;28;20638;-59
2022/12/19 00:21:05;;;;;;;33.70;17.25;;;4.70;99.90;;;;;;5113675;28;20180;-60
2022/12/19 00:23:33;;;;;;;30.17;15.07;;;4.70;99.90;;;;;;5113907;28;20297;-60
2022/12/19 00:26:14;;;;;;;31.88;15.30;;;4.70;99.90;;;;;;5113682;28;20200;-60
2022/12/19 00:28:42;;;;;;;28.88;15.75;;;4.90;99.90;;;;;;5113592;28;20199;-60
2022/12/19 00:31:08;;;;;;;31.83;14.80;;;4.90;99.90;;;;;;5113552;28;20172;-59
2022/12/19 00:33:34;;;;;;;29.40;15.00;;;4.90;99.90;;;;;;5113492;28;20232;-59
2022/12/19 00:36:02;;;;;;;32.67;14.23;;;4.90;99.90;;;;;;5113662;28;20704;-59
2022/12/19 00:38:29;;;;;;;31.20;14.30;;;5.00;99.90;;;;;;5113576;28;20773;-60
2022/12/19 00:40:54;;;;;;;29.73;14.93;;;4.90;99.90;;;;;;5113364;28;20180;-59
2022/12/19 00:43:20;;;;;;;30.90;16.13;;;5.00;99.90;;;;;;5113693;28;20304;-59
2022/12/19 00:45:46;;;;;;;35.33;16.98;;;5.00;99.90;;;;;;5113230;28;20196;-59
2022/12/19 00:48:11;;;;;;;31.38;15.02;;;5.00;99.90;;;;;;5113563;28;20176;-59
2022/12/19 00:50:37;;;;;;;32.33;15.27;;;4.90;99.90;;;;;;5113562;28;20180;-59
2022/12/19 00:53:03;;;;;;;31.30;13.50;;;5.00;99.90;;;;;;5113471;28;20176;-59
2022/12/19 00:55:28;;;;;;;30.45;14.73;;;5.00;99.90;;;;;;5113336;28;20267;-60
2022/12/19 00:57:54;;;;;;;31.27;14.30;;;5.10;99.90;;;;;;5113420;28;20645;-59
2022/12/19 01:00:20;;;;;;;31.55;14.45;;;5.10;99.90;;;;;;5113255;28;20179;-59
2022/12/19 01:02:45;;;;;;;33.05;15.32;;;5.10;99.90;;;;;;5112124;28;20267;-59
2022/12/19 01:05:11;;;;;;;30.98;14.98;;;5.20;99.90;;;;;;5112161;28;20591;-59
2022/12/19 01:07:36;;;;;;;33.13;14.45;;;5.20;99.90;;;;;;5116902;28;20202;-59
2022/12/19 01:10:03;;;;;;;34.80;14.40;;;5.20;99.90;;;;;;5117500;28;20184;-59
2022/12/19 01:12:47;;;;;;;27.70;15.77;;;5.20;99.90;;;;;;5116986;28;20188;-59
2022/12/19 01:15:19;;;;;;;35.75;18.17;;;5.10;99.90;;;;;;5116943;28;20188;-59
2022/12/19 01:17:45;;;;;;;31.63;15.13;;;5.20;99.90;;;;;;5117258;28;20628;-59
2022/12/19 01:20:13;;;;;;;27.02;14.45;;;5.20;99.90;;;;;;5117121;28;20275;-59
2022/12/19 01:22:38;;;;;;;31.92;14.93;;;5.20;99.90;;;;;;5116869;28;20194;-59
2022/12/19 01:25:05;;;;;;;28.88;14.40;;;5.20;99.90;;;;;;5116993;28;20229;-59
2022/12/19 01:27:30;;;;;;;32.55;16.25;;;5.30;99.90;;;;;;5116643;28;20184;-59
2022/12/19 01:30:00;;;;;;;27.92;14.82;;;5.30;99.90;;;;;;5117265;28;20403;-59
2022/12/19 01:32:29;;;;;;;27.15;13.23;;;5.30;99.90;;;;;;5116917;28;20564;-59
2022/12/19 01:34:55;;;;;;;33.13;14.18;;;5.30;99.90;;;;;;5115542;28;20192;-59
2022/12/19 01:37:21;;;;;;;25.75;13.80;;;5.40;99.90;;;;;;5116549;28;20168;-59
2022/12/19 01:39:47;;;;;;;23.40;13.02;;;5.50;99.90;;;;;;5116710;28;20561;-59
2022/12/19 01:42:18;;;;;;;27.98;13.27;;;5.50;99.90;;;;;;5116651;28;20200;-59
2022/12/19 01:45:02;;;;;;;23.02;12.70;;;5.50;99.90;;;;;;5116757;28;20661;-59
2022/12/19 01:47:29;;;;;;;25.40;12.50;;;5.50;99.90;;;;;;5116739;28;20519;-59
2022/12/19 01:49:55;;;;;;;24.98;12.40;;;5.50;99.90;;;;;;5116432;27;20534;-59
2022/12/19 01:52:21;;;;;;;24.63;13.82;;;5.50;99.90;;;;;;5116313;28;20658;-60
2022/12/19 01:54:47;;;;;;;24.33;12.80;;;5.60;99.90;;;;;;5116137;28;20230;-61
2022/12/19 01:57:17;;;;;;;23.40;12.55;;;5.60;99.90;;;;;;5116495;28;20642;-59
2022/12/19 01:59:53;;;;;;;21.70;12.75;;;5.60;99.90;;;;;;5115297;28;20192;-59
2022/12/19 02:02:30;;;;;;;27.65;13.77;;;5.60;99.90;;;;;;5116239;28;20176;-59
2022/12/19 02:04:55;;;;;;;24.83;13.15;;;5.80;99.90;;;;;;5116004;28;20665;-60
2022/12/19 02:07:24;;;;;;;25.40;13.32;;;5.80;99.90;;;;;;5116054;28;20177;-59
2022/12/19 02:09:55;;;;;;;23.05;12.40;;;5.80;99.90;;;;;;5116121;28;20165;-60
2022/12/19 02:12:23;;;;;;;23.92;13.88;;;5.80;99.90;;;;;;5115923;28;20208;-59
2022/12/19 02:14:49;;;;;;;21.02;12.43;;;5.80;99.90;;;;;;5116006;28;20173;-59
2022/12/19 02:17:36;;;;;;;28.60;15.82;;;5.70;99.90;;;;;;5115041;28;20208;-59
2022/12/19 02:20:12;;;;;;;37.70;19.15;;;5.80;99.90;;;;;;5115947;28;20244;-59
2022/12/19 02:23:01;;;;;;;23.70;14.40;;;5.90;99.90;;;;;;5115951;28;20646;-60
2022/12/19 02:26:00;;;;;;;30.15;14.25;;;5.80;99.90;;;;;;5103161;28;20293;-59
2022/12/19 02:28:42;;;;;;;25.00;13.57;;;5.80;99.90;;;;;;5114064;28;20207;-59
2022/12/19 02:31:10;;;;;;;27.75;14.18;;;5.90;99.90;;;;;;5115711;28;20252;-59
2022/12/19 02:33:39;;;;;;;28.15;15.45;;;5.90;99.90;;;;;;5114365;28;20174;-59
2022/12/19 02:36:37;;;;;;;28.02;16.70;;;5.90;99.90;;;;;;5115495;28;20188;-60
2022/12/19 02:39:10;;;;;;;26.80;14.40;;;5.90;99.90;;;;;;5081105;27;20237;-59
2022/12/19 02:41:44;;;;;;;26.90;14.50;;;5.90;99.90;;;;;;5115629;28;20187;-59
2022/12/19 02:44:16;;;;;;;33.63;19.65;;;6.00;99.90;;;;;;5114166;28;20570;-59
2022/12/19 02:46:44;;;;;;;32.05;15.48;;;6.10;99.90;;;;;;5115241;28;20196;-60
2022/12/19 02:49:14;;;;;;;29.48;14.43;;;6.10;99.90;;;;;;5115393;28;20264;-59
2022/12/19 02:51:39;;;;;;;28.50;16.98;;;6.20;99.90;;;;;;5115299;28;20173;-61
2022/12/19 02:54:06;;;;;;;27.27;15.40;;;6.20;99.90;;;;;;5115251;28;20173;-59
2022/12/19 02:57:10;;;;;;;26.95;14.05;;;6.20;99.90;;;;;;5115178;28;20263;-59
2022/12/19 03:00:04;;;;;;;26.33;14.20;;;6.20;99.90;;;;;;5052202;28;20224;-59
2022/12/19 03:02:39;;;;;;;34.30;15.10;;;6.20;99.90;;;;;;5052288;28;20293;-59
2022/12/19 03:05:14;;;;;;;26.60;13.95;;;6.30;99.90;;;;;;5096925;28;20227;-60
2022/12/19 03:07:48;;;;;;;26.00;14.75;;;6.20;99.90;;;;;;5114762;28;20187;-60
2022/12/19 03:10:19;;;;;;;22.83;12.35;;;6.30;99.90;;;;;;5115161;28;20196;-59
2022/12/19 03:12:54;;;;;;;28.33;15.25;;;6.40;99.90;;;;;;5114415;28;20184;-59
2022/12/19 03:15:22;;;;;;;35.17;14.93;;;6.40;99.90;;;;;;5114871;27;20206;-59
2022/12/19 03:17:48;;;;;;;24.25;14.32;;;6.40;99.90;;;;;;5114696;28;20217;-59
2022/12/19 03:20:32;;;;;;;27.50;16.67;;;6.30;99.90;;;;;;5114565;28;20515;-59
2022/12/19 03:22:58;;;;;;;31.77;15.35;;;6.40;99.90;;;;;;5114648;28;20644;-59
2022/12/19 03:25:25;;;;;;;27.20;16.73;;;6.30;99.90;;;;;;5114679;28;20284;-59
2022/12/19 03:27:52;;;;;;;28.70;15.20;;;6.30;99.90;;;;;;5114548;28;20215;-59
2022/12/19 03:30:18;;;;;;;25.65;13.88;;;6.40;99.90;;;;;;5114103;28;20638;-59
2022/12/19 03:32:45;;;;;;;23.48;13.52;;;6.50;99.90;;;;;;5114424;27;20192;-60
2022/12/19 03:35:24;;;;;;;28.45;17.35;;;6.50;99.90;;;;;;5114718;28;20189;-59
2022/12/19 03:37:52;;;;;;;27.35;15.60;;;6.60;99.90;;;;;;5114593;28;20634;-59
2022/12/19 03:40:23;;;;;;;22.10;13.57;;;6.60;99.90;;;;;;5114240;28;20233;-60
2022/12/19 03:43:07;;;;;;;37.60;20.48;;;6.70;99.90;;;;;;5114173;28;20188;-59
2022/12/19 03:45:43;;;;;;;28.35;15.80;;;6.70;99.90;;;;;;5114304;28;20208;-59
2022/12/19 03:48:21;;;;;;;27.80;13.73;;;6.70;99.90;;;;;;5114117;28;20168;-59
2022/12/19 03:51:26;;;;;;;25.08;13.65;;;6.70;99.90;;;;;;5114224;28;20173;-59
2022/12/19 03:54:19;;;;;;;26.95;13.98;;;6.80;99.90;;;;;;5114326;28;20200;-60
2022/12/19 03:57:00;;;;;;;26.02;16.95;;;6.80;99.90;;;;;;5114185;28;20252;-59
2022/12/19 03:59:26;;;;;;;27.95;14.82;;;6.70;99.90;;;;;;5113996;28;20172;-59
2022/12/19 04:01:53;;;;;;;26.77;14.10;;;6.80;99.90;;;;;;5113780;28;20214;-60
2022/12/19 04:04:25;;;;;;;25.08;13.73;;;6.70;99.90;;;;;;5114125;28;20173;-59
2022/12/19 04:06:52;;;;;;;27.05;17.60;;;6.70;99.90;;;;;;5113903;28;20611;-59
2022/12/19 04:09:22;;;;;;;27.77;17.02;;;6.70;99.90;;;;;;5113973;28;20180;-59
2022/12/19 04:11:51;;;;;;;25.17;14.25;;;6.80;99.90;;;;;;5114025;28;20208;-59
2022/12/19 04:14:32;;;;;;;22.23;13.25;;;6.80;99.90;;;;;;5113738;28;20169;-60
2022/12/19 04:17:05;;;;;;;22.17;14.43;;;6.80;99.90;;;;;;5113951;28;20577;-59
2022/12/19 04:19:39;;;;;;;21.55;13.77;;;6.90;99.90;;;;;;5113853;28;20483;-59
2022/12/19 04:22:12;;;;;;;25.55;13.73;;;6.80;99.90;;;;;;5113712;28;20173;-60
2022/12/19 04:24:40;;;;;;;21.25;13.63;;;6.80;99.90;;;;;;5113672;28;20634;-59
2022/12/19 04:27:08;;;;;;;23.50;16.38;;;6.80;99.90;;;;;;5113692;28;20209;-59
2022/12/19 04:29:36;;;;;;;23.05;14.35;;;6.80;99.90;;;;;;5113814;28;20173;-59
2022/12/19 04:32:04;;;;;;;19.90;12.77;;;6.80;99.90;;;;;;5113616;28;20173;-59
2022/12/19 04:34:31;;;;;;;25.77;13.77;;;6.90;99.90;;;;;;5113634;28;20169;-59
2022/12/19 04:36:56;;;;;;;20.20;14.85;;;7.00;99.90;;;;;;5113645;28;20187;-59
2022/12/19 04:39:22;;;;;;;17.55;13.85;;;6.90;99.90;;;;;;5113498;28;20177;-59
2022/12/19 04:41:48;;;;;;;19.70;13.10;;;6.90;99.90;;;;;;5115663;28;20332;-60
2022/12/19 04:44:14;;;;;;;20.45;13.32;;;6.90;99.90;;;;;;5117777;27;20184;-59
2022/12/19 04:46:39;;;;;;;21.42;15.40;;;6.90;99.90;;;;;;5117613;28;20303;-60
2022/12/19 04:49:05;;;;;;;18.60;12.95;;;7.00;99.90;;;;;;5117639;28;20255;-59
2022/12/19 04:51:31;;;;;;;18.15;14.52;;;7.00;99.90;;;;;;5117613;28;20169;-59
2022/12/19 04:53:57;;;;;;;17.98;13.00;;;7.00;99.90;;;;;;5118031;28;20207;-59
2022/12/19 04:56:22;;;;;;;20.00;12.55;;;7.10;99.90;;;;;;5117548;28;20192;-59
2022/12/19 04:58:48;;;;;;;20.08;13.35;;;7.10;99.90;;;;;;5117506;28;20176;-59
2022/12/19 05:01:13;;;;;;;17.52;12.48;;;7.20;99.90;;;;;;5117265;28;20238;-59
2022/12/19 05:03:39;;;;;;;19.10;13.98;;;7.10;99.90;;;;;;5117400;28;20173;-61
2022/12/19 05:06:08;;;;;;;19.08;12.18;;;7.20;99.90;;;;;;5117205;28;20711;-60
2022/12/19 05:08:35;;;;;;;19.08;12.02;;;7.30;99.90;;;;;;5117060;28;20200;-59
2022/12/19 05:11:01;;;;;;;20.23;13.48;;;7.30;99.90;;;;;;5117432;28;20177;-59
2022/12/19 05:13:28;;;;;;;16.48;11.60;;;7.30;99.90;;;;;;5117249;28;20259;-60
2022/12/19 05:15:58;;;;;;;17.83;13.82;;;7.30;99.90;;;;;;5117175;28;20188;-59
2022/12/19 05:18:24;;;;;;;17.15;12.25;;;7.40;99.90;;;;;;5117172;28;20161;-59
2022/12/19 05:20:50;;;;;;;18.25;11.65;;;7.50;99.90;;;;;;5116893;28;20188;-59
2022/12/19 05:23:19;;;;;;;16.10;12.70;;;7.50;99.90;;;;;;5117176;28;20215;-60
2022/12/19 05:25:45;;;;;;;16.85;11.57;;;7.40;99.90;;;;;;5117042;28;20208;-59
2022/12/19 05:28:11;;;;;;;15.50;11.18;;;7.50;99.90;;;;;;5117044;28;20173;-59
2022/12/19 05:30:40;;;;;;;18.02;13.02;;;7.40;99.90;;;;;;5116867;28;20596;-58
2022/12/19 05:33:06;;;;;;;16.52;11.32;;;7.50;99.90;;;;;;5116750;28;20198;-59
2022/12/19 05:35:33;;;;;;;19.00;11.25;;;7.50;99.90;;;;;;5116518;28;20633;-59
2022/12/19 05:37:58;;;;;;;15.35;11.90;;;7.60;99.90;;;;;;5116799;28;20173;-59
2022/12/19 05:40:24;;;;;;;14.93;13.05;;;7.60;99.90;;;;;;5116717;28;20186;-59
2022/12/19 05:42:49;;;;;;;15.90;12.93;;;7.50;99.90;;;;;;5116692;28;20272;-59
2022/12/19 05:45:15;;;;;;;15.23;10.65;;;7.60;99.90;;;;;;5116546;28;20200;-60
2022/12/19 05:47:43;;;;;;;15.10;13.50;;;7.70;99.90;;;;;;5116418;28;20172;-59
2022/12/19 05:50:09;;;;;;;15.00;12.57;;;7.60;99.90;;;;;;5116263;28;20201;-59
2022/12/19 05:52:37;;;;;;;13.70;12.27;;;7.60;99.90;;;;;;5116448;28;20181;-59
2022/12/19 05:55:04;;;;;;;20.52;12.32;;;7.50;99.90;;;;;;5116464;28;20701;-61
2022/12/19 05:57:30;;;;;;;14.82;12.38;;;7.60;99.90;;;;;;5116409;28;20165;-59
2022/12/19 05:59:56;;;;;;;16.02;14.00;;;7.70;99.90;;;;;;5116226;28;20296;-58
2022/12/19 06:02:22;;;;;;;12.93;11.38;;;7.80;99.90;;;;;;5116054;28;20182;-59
2022/12/19 06:04:54;;;;;;;16.80;11.45;;;7.70;99.90;;;;;;5115914;28;20180;-58
2022/12/19 06:07:19;;;;;;;13.48;10.38;;;7.60;99.90;;;;;;5115335;28;20185;-59
2022/12/19 06:09:45;;;;;;;15.30;10.65;;;7.70;99.90;;;;;;5115979;28;20170;-59
2022/12/19 06:12:10;;;;;;;16.63;11.68;;;7.70;99.90;;;;;;5115972;28;20173;-58
2022/12/19 06:14:36;;;;;;;15.30;11.10;;;7.70;99.90;;;;;;5116024;28;20634;-58
2022/12/19 06:17:01;;;;;;;14.32;10.82;;;7.60;99.90;;;;;;5115793;28;20207;-59
2022/12/19 06:19:28;;;;;;;12.55;10.13;;;7.60;99.90;;;;;;5115724;28;20230;-60
2022/12/19 06:21:54;;;;;;;16.08;9.95;;;7.70;99.90;;;;;;5114671;28;20176;-58
2022/12/19 06:24:20;;;;;;;13.57;10.73;;;7.60;99.90;;;;;;5116126;28;20540;-58
2022/12/19 06:26:45;;;;;;;14.52;11.20;;;7.60;99.90;;;;;;5115739;28;20230;-58
2022/12/19 06:29:11;;;;;;;14.52;10.95;;;7.70;99.90;;;;;;5115747;28;20550;-59
2022/12/19 06:31:37;;;;;;;15.90;10.80;;;7.80;99.90;;;;;;5115568;28;20537;-58
2022/12/19 06:34:02;;;;;;;12.82;9.88;;;7.80;99.90;;;;;;5114316;28;20603;-58
2022/12/19 06:36:30;;;;;;;12.77;9.82;;;7.70;99.90;;;;;;5115914;28;20177;-58
2022/12/19 06:38:57;;;;;;;16.52;11.80;;;7.70;99.90;;;;;;5115437;28;20182;-58
2022/12/19 06:44:10;;;;;;;14.88;9.93;;;7.80;99.90;;;;;;5115621;28;20179;-59
2022/12/19 06:46:36;;;;;;;14.63;9.77;;;7.70;99.90;;;;;;5115290;28;20216;-58
2022/12/19 06:49:03;;;;;;;14.80;11.93;;;7.70;99.90;;;;;;5115428;28;20680;-58
2022/12/19 06:51:30;;;;;;;13.77;10.85;;;7.80;99.90;;;;;;5115329;28;20191;-59
2022/12/19 06:53:56;;;;;;;16.45;12.73;;;7.80;99.90;;;;;;5115403;28;20537;-58
2022/12/19 06:56:22;;;;;;;14.32;10.85;;;7.80;99.90;;;;;;5115084;28;20526;-58
2022/12/19 06:58:48;;;;;;;14.52;9.23;;;7.70;99.90;;;;;;5115074;28;20172;-58
2022/12/19 07:01:24;;;;;;;12.48;11.18;;;7.80;99.90;;;;;;5115221;28;20255;-58
2022/12/19 07:03:50;;;;;;;11.23;9.98;;;7.70;99.90;;;;;;5114561;28;20161;-58
2022/12/19 07:06:15;;;;;;;14.38;9.93;;;7.80;99.90;;;;;;5114954;28;20216;-59
2022/12/19 07:08:41;;;;;;;12.50;9.60;;;7.80;99.90;;;;;;5114852;28;20176;-59
2022/12/19 07:11:07;;;;;;;12.27;9.60;;;7.80;99.90;;;;;;5114782;28;20568;-59
2022/12/19 07:13:33;;;;;;;12.38;11.18;;;7.70;99.90;;;;;;5114778;28;20176;-58
2022/12/19 07:16:01;;;;;;;11.07;9.68;;;7.80;99.90;;;;;;5114759;28;20242;-58
2022/12/19 07:18:30;;;;;;;12.18;8.93;;;7.80;99.90;;;;;;5113601;28;20633;-58
2022/12/19 07:21:00;;;;;;;10.23;8.95;;;7.80;99.90;;;;;;5114602;27;20195;-59
2022/12/19 07:23:25;;;;;;;11.40;8.80;;;7.80;99.90;;;;;;5114627;28;20177;-58
2022/12/19 07:25:51;;;;;;;11.88;8.48;;;7.80;99.90;;;;;;5114371;28;20695;-58
2022/12/19 07:28:17;;;;;;;11.13;10.02;;;7.80;99.90;;;;;;5114703;28;20170;-59
2022/12/19 07:30:43;;;;;;;9.85;8.85;;;7.90;99.90;;;;;;5114615;28;20176;-59
2022/12/19 07:33:09;;;;;;;13.77;8.90;;;7.90;99.90;;;;;;5113243;28;20308;-58
2022/12/19 07:35:34;;;;;;;15.52;10.18;;;7.90;99.90;;;;;;5114331;28;20200;-59
2022/12/19 07:38:02;;;;;;;11.35;8.70;;;8.00;99.90;;;;;;5114316;28;20204;-59
2022/12/19 07:40:28;;;;;;;11.52;9.70;;;8.00;99.90;;;;;;5114217;28;20173;-59
2022/12/19 07:42:53;;;;;;;10.70;9.10;;;8.00;99.90;;;;;;5114149;28;20192;-59
2022/12/19 07:45:19;;;;;;;11.60;8.30;;;8.00;99.90;;;;;;5114276;28;20553;-59
2022/12/19 07:47:46;;;;;;;11.82;8.93;;;8.10;99.90;;;;;;5114368;28;20176;-58
2022/12/19 07:50:12;;;;;;;11.35;8.30;;;8.00;99.90;;;;;;5114277;28;20266;-58
2022/12/19 07:52:37;;;;;;;10.60;9.35;;;8.10;99.90;;;;;;5114138;28;20265;-58
2022/12/19 07:55:06;;;;;;;11.48;8.57;;;8.10;99.90;;;;;;5112676;28;20291;-60
2022/12/19 07:57:35;;;;;;;10.95;8.30;;;8.10;99.90;;;;;;5114208;28;20177;-59
2022/12/19 08:00:02;;;;;;;9.80;7.72;;;8.10;99.90;;;;;;5114093;28;20198;-59
2022/12/19 08:02:28;;;;;;;9.77;8.20;;;8.10;99.90;;;;;;5114044;28;20257;-58
2022/12/19 08:04:54;;;;;;;8.35;7.28;;;8.10;99.90;;;;;;5113968;28;20252;-58
2022/12/19 08:07:20;;;;;;;9.65;8.25;;;8.10;99.90;;;;;;5113881;28;20251;-58
2022/12/19 08:09:45;;;;;;;11.65;8.32;;;8.10;99.90;;;;;;5113783;28;20199;-59
2022/12/19 08:12:11;;;;;;;10.10;7.82;;;8.20;99.90;;;;;;5113708;28;20177;-58
2022/12/19 08:14:36;;;;;;;10.32;7.07;;;8.10;99.90;;;;;;5113831;28;20188;-58
2022/12/19 08:17:02;;;;;;;10.40;9.23;;;8.10;99.90;;;;;;5113008;28;20180;-58
2022/12/19 08:19:28;;;;;;;9.35;8.45;;;8.20;99.90;;;;;;5113742;28;20252;-59
2022/12/19 08:21:53;;;;;;;9.10;8.05;;;8.20;99.90;;;;;;5113676;28;20177;-59
2022/12/19 08:24:19;;;;;;;9.20;8.30;;;8.30;99.90;;;;;;5113850;28;20184;-59
2022/12/19 08:26:45;;;;;;;9.75;8.07;;;8.20;99.90;;;;;;5112489;28;20296;-58
2022/12/19 08:29:10;;;;;;;8.10;6.82;;;8.20;99.90;;;;;;5113715;28;20229;-59
2022/12/19 08:31:36;;;;;;;8.70;7.15;;;8.30;99.90;;;;;;5113500;28;20173;-59
2022/12/19 08:34:02;;;;;;;9.10;7.13;;;8.30;99.90;;;;;;5112559;28;20183;-59
2022/12/19 08:36:27;;;;;;;9.32;7.15;;;8.30;99.90;;;;;;5113413;28;20193;-59
2022/12/19 08:38:53;;;;;;;8.55;6.95;;;8.30;99.90;;;;;;5113405;28;20208;-59
2022/12/19 08:41:19;;;;;;;7.57;6.78;;;8.30;99.90;;;;;;5113388;28;20254;-59
2022/12/19 08:43:55;;;;;;;7.80;6.57;;;8.30;99.90;;;;;;5113865;28;20169;-59
2022/12/19 08:46:24;;;;;;;8.02;7.00;;;8.40;99.90;;;;;;5113428;28;20242;-59
2022/12/19 08:48:50;;;;;;;7.82;7.22;;;8.40;99.90;;;;;;5113429;28;20185;-59
2022/12/19 08:51:16;;;;;;;7.07;6.45;;;8.30;99.90;;;;;;5113369;28;20176;-59
2022/12/19 08:53:43;;;;;;;8.07;7.28;;;8.50;99.90;;;;;;5113575;28;20593;-59
2022/12/19 08:56:20;;;;;;;7.82;7.13;;;8.40;99.90;;;;;;5113344;28;20642;-59
2022/12/19 08:58:46;;;;;;;7.28;6.55;;;8.50;99.90;;;;;;5113444;28;20175;-59
2022/12/19 09:01:15;;;;;;;7.65;6.50;;;8.50;99.90;;;;;;5113412;28;20252;-59
2022/12/19 09:03:41;;;;;;;7.38;6.68;;;8.50;99.90;;;;;;5112049;28;20531;-58
2022/12/19 09:06:09;;;;;;;6.70;6.10;;;8.50;99.90;;;;;;5113135;28;20587;-59
2022/12/19 09:08:35;;;;;;;6.80;6.10;;;8.60;99.90;;;;;;5113219;28;20272;-59
2022/12/19 09:11:03;;;;;;;7.68;6.20;;;8.50;99.90;;;;;;5113415;28;20192;-59
2022/12/19 09:13:30;;;;;;;6.50;5.90;;;8.60;99.90;;;;;;5113259;28;20170;-59
2022/12/19 09:16:19;;;;;;;8.23;5.93;;;8.50;99.90;;;;;;5113113;28;20658;-58
2022/12/19 09:18:50;;;;;;;6.72;5.97;;;8.60;99.90;;;;;;5113489;28;20165;-58
2022/12/19 09:21:22;;;;;;;6.68;6.07;;;8.70;99.90;;;;;;5113382;28;20169;-59
2022/12/19 09:23:59;;;;;;;6.53;5.93;;;8.80;99.90;;;;;;5113133;28;20178;-59
2022/12/19 09:26:29;;;;;;;7.45;5.88;;;8.70;99.90;;;;;;5113052;28;20201;-59
2022/12/19 09:28:55;;;;;;;9.90;6.50;;;8.70;99.90;;;;;;5116895;28;20177;-59
2022/12/19 09:31:23;;;;;;;7.15;5.10;;;8.70;99.90;;;;;;5117078;28;20196;-58
2022/12/19 09:33:50;;;;;;;7.10;5.85;;;8.70;99.90;;;;;;5116922;28;20173;-58
2022/12/19 09:36:22;;;;;;;9.25;5.72;;;8.70;99.90;;;;;;5116842;28;20206;-59
2022/12/19 09:38:48;;;;;;;7.60;6.18;;;8.80;99.90;;;;;;5116726;28;20176;-58
2022/12/19 09:41:41;;;;;;;6.85;6.15;;;8.80;99.90;;;;;;5116804;28;20510;-59
2022/12/19 09:44:11;;;;;;;6.72;6.00;;;8.80;99.90;;;;;;5116707;28;20177;-59
2022/12/19 09:46:49;;;;;;;8.02;6.60;;;8.90;99.90;;;;;;5116526;28;20634;-59
2022/12/19 09:49:38;;;;;;;8.43;7.30;;;8.80;99.90;;;;;;5116618;28;20628;-58
2022/12/19 09:52:12;;;;;;;7.93;7.00;;;8.90;99.90;;;;;;5116995;28;20176;-58
2022/12/19 09:54:50;;;;;;;8.45;7.13;;;8.80;99.90;;;;;;5116566;28;20310;-58
2022/12/19 09:57:40;;;;;;;8.30;7.22;;;8.80;99.90;;;;;;5116313;28;20629;-59
2022/12/19 10:00:12;;;;;;;7.45;6.70;;;8.80;99.90;;;;;;5116165;28;20172;-59
2022/12/19 10:02:43;;;;;;;8.80;6.30;;;8.90;99.90;;;;;;5116733;28;20165;-59
2022/12/19 10:05:12;;;;;;;7.65;6.35;;;8.80;99.90;;;;;;5116112;28;20177;-58
2022/12/19 10:07:43;;;;;;;8.00;7.20;;;8.80;99.90;;;;;;5116145;28;20530;-58
2022/12/19 10:10:17;;;;;;;8.70;7.80;;;8.80;99.90;;;;;;5116037;28;20168;-58
2022/12/19 10:13:07;;;;;;;10.05;7.20;;;8.80;99.90;;;;;;5115933;28;20181;-58
2022/12/19 10:15:55;;;;;;;8.85;7.78;;;8.80;99.90;;;;;;5116241;28;20180;-58
2022/12/19 10:18:21;;;;;;;8.63;7.72;;;8.80;99.90;;;;;;5116062;28;20172;-58
2022/12/19 10:21:07;;;;;;;8.57;7.68;;;8.80;99.90;;;;;;5115836;28;20184;-58
2022/12/19 10:24:09;;;;;;;7.95;7.18;;;8.90;99.90;;;;;;5116249;28;20244;-58
2022/12/19 10:26:57;;;;;;;7.47;6.72;;;8.90;99.90;;;;;;5115784;28;20199;-59
2022/12/19 10:29:26;;;;;;;8.57;7.13;;;8.90;99.90;;;;;;5115673;28;20638;-58
2022/12/19 10:32:03;;;;;;;8.98;7.65;;;8.90;99.90;;;;;;5115711;28;20244;-59
2022/12/19 10:34:39;;;;;;;8.13;7.32;;;8.90;99.90;;;;;;5115564;28;20648;-59
2022/12/19 10:37:27;;;;;;;7.90;7.20;;;8.90;99.90;;;;;;5115829;27;20172;-60
2022/12/19 10:40:14;;;;;;;7.53;6.80;;;8.90;99.90;;;;;;5114402;28;20226;-59
2022/12/19 10:43:07;;;;;;;7.72;6.95;;;9.00;99.90;;;;;;5115372;28;20224;-59
2022/12/19 10:45:43;;;;;;;8.85;7.13;;;9.00;99.90;;;;;;5115412;28;20193;-58
2022/12/19 10:48:15;;;;;;;7.43;6.70;;;9.10;99.90;;;;;;5115434;28;20515;-58
2022/12/19 10:50:41;;;;;;;7.63;6.88;;;9.10;99.90;;;;;;5115582;28;20169;-59
2022/12/19 10:53:12;;;;;;;8.30;6.88;;;9.20;99.90;;;;;;5115371;28;20538;-58
2022/12/19 10:55:59;;;;;;;8.88;7.20;;;9.20;99.90;;;;;;5115340;28;20251;-59
2022/12/19 10:58:36;;;;;;;7.43;5.80;;;9.30;99.90;;;;;;5115201;28;20200;-59
2022/12/19 11:01:24;;;;;;;7.30;6.28;;;9.20;99.90;;;;;;5115241;28;20180;-58
2022/12/19 11:04:10;;;;;;;6.93;6.05;;;9.30;99.90;;;;;;5115126;28;20209;-58
2022/12/19 11:06:35;;;;;;;6.72;6.03;;;9.30;99.90;;;;;;5114992;28;20197;-59
2022/12/19 11:09:18;;;;;;;6.18;5.57;;;9.40;99.90;;;;;;5114827;28;20602;-58
2022/12/19 11:11:46;;;;;;;6.82;6.07;;;9.30;99.90;;;;;;5114993;28;20177;-58
2022/12/19 11:14:24;;;;;;;6.85;6.13;;;9.50;99.90;;;;;;5114918;28;20199;-58
2022/12/19 11:16:50;;;;;;;7.10;5.25;;;9.40;99.90;;;;;;5114913;28;20203;-58
2022/12/19 11:19:29;;;;;;;6.93;5.55;;;9.30;99.90;;;;;;5114682;28;20205;-59
2022/12/19 11:22:12;;;;;;;6.63;5.97;;;9.40;99.90;;;;;;5114828;28;20229;-58
2022/12/19 11:24:46;;;;;;;6.57;5.45;;;9.50;99.90;;;;;;5114826;28;20231;-58
2022/12/19 11:27:45;;;;;;;6.55;5.18;;;9.50;99.90;;;;;;5114637;28;20746;-59
2022/12/19 11:30:13;;;;;;;7.60;5.97;;;9.70;99.90;;;;;;5114675;28;20197;-58
2022/12/19 11:32:42;;;;;;;6.28;4.80;;;9.80;99.90;;;;;;5114483;28;20170;-60
2022/12/19 11:35:20;;;;;;;5.78;5.20;;;9.70;99.90;;;;;;5114882;28;20184;-58
2022/12/19 11:37:55;;;;;;;5.68;4.43;;;9.80;99.90;;;;;;5114456;28;20175;-58
2022/12/19 11:40:33;;;;;;;5.50;4.50;;;9.90;99.90;;;;;;5114532;28;20556;-59
2022/12/19 11:43:14;;;;;;;5.32;4.57;;;9.80;99.90;;;;;;5114374;28;20292;-58
2022/12/19 11:46:07;;;;;;;7.30;4.63;;;9.90;99.90;;;;;;5114151;28;20205;-59
2022/12/19 11:48:48;;;;;;;6.50;4.53;;;9.90;99.90;;;;;;5114139;28;20251;-58
2022/12/19 11:51:35;;;;;;;5.85;4.13;;;9.90;99.90;;;;;;5114095;28;20248;-59
2022/12/19 11:54:26;;;;;;;4.57;4.10;;;9.90;99.90;;;;;;5114105;28;20638;-59
2022/12/19 11:56:52;;;;;;;4.38;3.97;;;9.90;99.90;;;;;;5113953;28;20170;-60
2022/12/19 11:59:22;;;;;;;4.40;4.00;;;9.90;99.90;;;;;;5114219;28;20302;-58
2022/12/19 12:01:58;;;;;;;5.10;4.22;;;10.00;99.90;;;;;;5114205;28;20173;-59
2022/12/19 12:04:53;;;;;;;4.40;4.00;;;10.00;99.90;;;;;;5114124;28;20176;-58
2022/12/19 12:07:19;;;;;;;5.93;3.70;;;10.00;99.90;;;;;;5113817;28;20209;-58
2022/12/19 12:10:01;;;;;;;4.32;3.75;;;10.00;99.90;;;;;;5114028;28;20169;-59
2022/12/19 12:12:32;;;;;;;3.88;3.58;;;10.00;99.90;;;;;;5114064;28;20177;-58
2022/12/19 12:15:24;;;;;;;4.80;3.67;;;10.00;99.90;;;;;;5114004;28;20183;-59
2022/12/19 12:18:22;;;;;;;4.57;3.55;;;10.10;99.90;;;;;;5113774;28;20173;-59
2022/12/19 12:21:02;;;;;;;4.35;3.42;;;10.20;99.90;;;;;;5113811;28;20169;-59
2022/12/19 12:23:36;;;;;;;4.43;3.33;;;10.10;99.90;;;;;;5113685;28;20177;-60
2022/12/19 12:26:14;;;;;;;3.50;3.20;;;10.10;99.90;;;;;;5113482;28;20275;-58
2022/12/19 12:28:56;;;;;;;3.47;3.17;;;10.10;99.90;;;;;;5113848;28;20251;-59
2022/12/19 12:31:40;;;;;;;4.85;3.40;;;10.10;99.90;;;;;;5113574;28;20219;-59
2022/12/19 12:34:28;;;;;;;3.63;3.22;;;10.20;99.90;;;;;;5113597;28;20626;-59
2022/12/19 12:37:12;;;;;;;3.38;3.00;;;10.20;99.90;;;;;;5113768;28;20177;-58
2022/12/19 12:39:43;;;;;;;3.85;3.20;;;10.20;99.90;;;;;;5113848;28;20173;-58
2022/12/19 12:42:18;;;;;;;3.72;3.25;;;10.10;99.90;;;;;;5113813;28;20200;-58
2022/12/19 12:44:47;;;;;;;3.38;2.90;;;10.20;99.90;;;;;;5113423;28;20225;-59
2022/12/19 12:47:23;;;;;;;3.63;3.22;;;10.10;99.90;;;;;;5113662;28;20229;-59
2022/12/19 12:50:03;;;;;;;4.00;3.03;;;10.10;99.90;;;;;;5113553;28;20201;-58
2022/12/19 12:52:32;;;;;;;4.50;3.00;;;10.10;99.90;;;;;;5113497;28;20169;-59
2022/12/19 12:54:58;;;;;;;3.25;2.92;;;10.10;99.90;;;;;;5113303;28;20173;-58
2022/12/19 12:57:27;;;;;;;4.53;3.47;;;10.10;99.90;;;;;;5113100;28;20199;-59
2022/12/19 13:00:29;;;;;;;3.95;3.33;;;10.20;99.90;;;;;;5113536;28;20177;-59
2022/12/19 13:03:09;;;;;;;3.47;3.17;;;10.20;99.90;;;;;;5083094;28;20184;-59
2022/12/19 13:05:51;;;;;;;4.20;2.90;;;10.20;99.90;;;;;;5117255;28;20193;-58
2022/12/19 13:08:45;;;;;;;3.35;3.05;;;10.20;99.90;;;;;;5117441;28;20212;-59
2022/12/19 13:14:38;;;;;;;4.50;3.03;;;10.20;99.90;;;;;;5117508;28;20236;-59